sensor_id;sensor_type;location;lat;lon;timestamp;pressure;altitude;pressure_sealevel;temperature;humidity
78841;BME280;68379;47.190;27.558;2023-07-29T00:02:25;99394.84;;;19.63;50.31
78841;BME280;68379;47.190;27.558;2023-07-29T00:04:58;99398.52;;;19.60;50.37
78841;BME280;68379;47.190;27.558;2023-07-29T00:07:29;99396.97;;;19.57;50.65
78841;BME280;68379;47.190;27.558;2023-07-29T00:10:01;99395.52;;;19.55;50.59
78841;BME280;68379;47.190;27.558;2023-07-29T00:12:33;99395.35;;;19.52;50.40
78841;BME280;68379;47.190;27.558;2023-07-29T00:15:06;99398.64;;;19.52;50.38
78841;BME280;68379;47.190;27.558;2023-07-29T00:17:38;99398.76;;;19.50;50.54
78841;BME280;68379;47.190;27.558;2023-07-29T00:20:11;99396.25;;;19.48;50.82
78841;BME280;68379;47.190;27.558;2023-07-29T00:22:43;99391.75;;;19.44;50.96
78841;BME280;68379;47.190;27.558;2023-07-29T00:25:15;99393.40;;;19.40;51.25
78841;BME280;68379;47.190;27.558;2023-07-29T00:27:46;99388.40;;;19.35;51.64
78841;BME280;68379;47.190;27.558;2023-07-29T00:30:18;99389.64;;;19.31;51.84
78841;BME280;68379;47.190;27.558;2023-07-29T00:32:50;99389.69;;;19.26;51.92
78841;BME280;68379;47.190;27.558;2023-07-29T00:35:21;99386.39;;;19.21;52.01
78841;BME280;68379;47.190;27.558;2023-07-29T00:37:53;99386.54;;;19.17;52.17
78841;BME280;68379;47.190;27.558;2023-07-29T00:40:25;99389.91;;;19.12;51.96
78841;BME280;68379;47.190;27.558;2023-07-29T00:43:00;99392.44;;;19.10;52.13
78841;BME280;68379;47.190;27.558;2023-07-29T00:45:33;99391.15;;;19.08;52.31
78841;BME280;68379;47.190;27.558;2023-07-29T00:48:05;99394.83;;;19.05;52.56
78841;BME280;68379;47.190;27.558;2023-07-29T00:50:37;99392.55;;;19.02;52.71
78841;BME280;68379;47.190;27.558;2023-07-29T00:53:09;99398.07;;;18.98;52.79
78841;BME280;68379;47.190;27.558;2023-07-29T00:55:42;99397.49;;;18.94;53.14
78841;BME280;68379;47.190;27.558;2023-07-29T00:58:13;99394.65;;;18.89;53.48
78841;BME280;68379;47.190;27.558;2023-07-29T01:00:46;99390.81;;;18.86;54.21
78841;BME280;68379;47.190;27.558;2023-07-29T01:03:18;99389.80;;;18.83;55.13
78841;BME280;68379;47.190;27.558;2023-07-29T01:06:08;99388.88;;;18.79;54.16
78841;BME280;68379;47.190;27.558;2023-07-29T01:08:54;99382.83;;;18.74;54.58
78841;BME280;68379;47.190;27.558;2023-07-29T01:11:38;99381.56;;;18.69;54.56
78841;BME280;68379;47.190;27.558;2023-07-29T01:14:25;99387.81;;;18.67;54.79
78841;BME280;68379;47.190;27.558;2023-07-29T01:17:03;99388.95;;;18.66;54.45
78841;BME280;68379;47.190;27.558;2023-07-29T01:19:59;99389.50;;;18.64;54.57
78841;BME280;68379;47.190;27.558;2023-07-29T01:22:34;99393.19;;;18.63;54.38
78841;BME280;68379;47.190;27.558;2023-07-29T01:25:07;99386.56;;;18.60;54.53
78841;BME280;68379;47.190;27.558;2023-07-29T01:27:40;99383.95;;;18.60;54.53
78841;BME280;68379;47.190;27.558;2023-07-29T01:30:12;99387.73;;;18.59;54.40
78841;BME280;68379;47.190;27.558;2023-07-29T01:32:48;99390.14;;;18.58;54.55
78841;BME280;68379;47.190;27.558;2023-07-29T01:35:26;99389.06;;;18.58;54.71
78841;BME280;68379;47.190;27.558;2023-07-29T01:38:01;99388.70;;;18.58;54.86
78841;BME280;68379;47.190;27.558;2023-07-29T01:40:34;99387.52;;;18.60;54.88
78841;BME280;68379;47.190;27.558;2023-07-29T01:43:07;99393.14;;;18.61;55.00
78841;BME280;68379;47.190;27.558;2023-07-29T01:45:40;99390.52;;;18.62;54.95
78841;BME280;68379;47.190;27.558;2023-07-29T01:48:12;99391.98;;;18.64;55.15
78841;BME280;68379;47.190;27.558;2023-07-29T01:50:43;99397.30;;;18.67;54.89
78841;BME280;68379;47.190;27.558;2023-07-29T01:53:15;99397.48;;;18.69;54.79
78841;BME280;68379;47.190;27.558;2023-07-29T01:55:47;99394.34;;;18.71;54.91
78841;BME280;68379;47.190;27.558;2023-07-29T01:58:19;99392.77;;;18.70;54.81
78841;BME280;68379;47.190;27.558;2023-07-29T02:00:51;99393.79;;;18.68;54.88
78841;BME280;68379;47.190;27.558;2023-07-29T02:03:22;99394.30;;;18.66;55.05
78841;BME280;68379;47.190;27.558;2023-07-29T02:05:54;99399.00;;;18.64;54.91
78841;BME280;68379;47.190;27.558;2023-07-29T02:08:26;99403.82;;;18.61;54.81
78841;BME280;68379;47.190;27.558;2023-07-29T02:10:57;99403.45;;;18.57;55.09
78841;BME280;68379;47.190;27.558;2023-07-29T02:13:29;99397.95;;;18.55;55.05
78841;BME280;68379;47.190;27.558;2023-07-29T02:16:01;99397.37;;;18.53;55.39
78841;BME280;68379;47.190;27.558;2023-07-29T02:18:32;99395.89;;;18.51;55.37
78841;BME280;68379;47.190;27.558;2023-07-29T02:21:04;99396.74;;;18.49;55.49
78841;BME280;68379;47.190;27.558;2023-07-29T02:23:36;99400.16;;;18.47;55.78
78841;BME280;68379;47.190;27.558;2023-07-29T02:26:07;99400.37;;;18.44;55.86
78841;BME280;68379;47.190;27.558;2023-07-29T02:28:39;99396.64;;;18.42;55.70
78841;BME280;68379;47.190;27.558;2023-07-29T02:31:17;99389.03;;;18.39;56.01
78841;BME280;68379;47.190;27.558;2023-07-29T02:33:52;99389.33;;;18.35;56.12
78841;BME280;68379;47.190;27.558;2023-07-29T02:36:25;99386.99;;;18.30;56.14
78841;BME280;68379;47.190;27.558;2023-07-29T02:38:57;99384.91;;;18.27;56.11
78841;BME280;68379;47.190;27.558;2023-07-29T02:41:29;99387.23;;;18.25;55.94
78841;BME280;68379;47.190;27.558;2023-07-29T02:44:01;99385.55;;;18.23;55.85
78841;BME280;68379;47.190;27.558;2023-07-29T02:46:33;99381.29;;;18.21;56.03
78841;BME280;68379;47.190;27.558;2023-07-29T02:49:04;99381.84;;;18.18;56.26
78841;BME280;68379;47.190;27.558;2023-07-29T02:51:36;99380.63;;;18.18;56.30
78841;BME280;68379;47.190;27.558;2023-07-29T02:54:08;99381.02;;;18.17;55.97
78841;BME280;68379;47.190;27.558;2023-07-29T02:56:39;99384.55;;;18.16;56.05
78841;BME280;68379;47.190;27.558;2023-07-29T02:59:11;99390.33;;;18.15;56.75
78841;BME280;68379;47.190;27.558;2023-07-29T03:01:43;99390.70;;;18.12;56.45
78841;BME280;68379;47.190;27.558;2023-07-29T03:04:15;99391.27;;;18.10;56.52
78841;BME280;68379;47.190;27.558;2023-07-29T03:06:46;99397.73;;;18.07;56.60
78841;BME280;68379;47.190;27.558;2023-07-29T03:09:18;99399.30;;;18.05;56.88
78841;BME280;68379;47.190;27.558;2023-07-29T03:11:50;99402.73;;;18.05;57.22
78841;BME280;68379;47.190;27.558;2023-07-29T03:14:23;99408.65;;;18.05;57.53
78841;BME280;68379;47.190;27.558;2023-07-29T03:16:54;99406.15;;;18.04;57.59
78841;BME280;68379;47.190;27.558;2023-07-29T03:19:27;99407.98;;;18.04;57.47
78841;BME280;68379;47.190;27.558;2023-07-29T03:21:59;99406.93;;;18.04;57.59
78841;BME280;68379;47.190;27.558;2023-07-29T03:24:30;99409.73;;;18.04;57.56
78841;BME280;68379;47.190;27.558;2023-07-29T03:27:03;99413.02;;;18.06;57.59
78841;BME280;68379;47.190;27.558;2023-07-29T03:29:35;99411.08;;;18.08;57.39
78841;BME280;68379;47.190;27.558;2023-07-29T03:32:08;99413.23;;;18.10;57.38
78841;BME280;68379;47.190;27.558;2023-07-29T03:34:40;99411.96;;;18.13;57.60
78841;BME280;68379;47.190;27.558;2023-07-29T03:37:11;99410.73;;;18.15;57.61
78841;BME280;68379;47.190;27.558;2023-07-29T03:39:44;99412.39;;;18.18;57.30
78841;BME280;68379;47.190;27.558;2023-07-29T03:42:15;99413.50;;;18.23;57.48
78841;BME280;68379;47.190;27.558;2023-07-29T03:44:47;99408.55;;;18.26;57.34
78841;BME280;68379;47.190;27.558;2023-07-29T03:47:19;99415.73;;;18.31;57.16
78841;BME280;68379;47.190;27.558;2023-07-29T03:49:51;99409.98;;;18.36;57.06
78841;BME280;68379;47.190;27.558;2023-07-29T03:52:23;99408.63;;;18.42;57.28
78841;BME280;68379;47.190;27.558;2023-07-29T03:54:55;99412.84;;;18.47;57.30
78841;BME280;68379;47.190;27.558;2023-07-29T03:57:27;99411.89;;;18.52;57.54
78841;BME280;68379;47.190;27.558;2023-07-29T04:00:00;99413.38;;;18.56;57.76
78841;BME280;68379;47.190;27.558;2023-07-29T04:02:32;99416.70;;;18.59;57.59
78841;BME280;68379;47.190;27.558;2023-07-29T04:05:04;99418.10;;;18.62;57.61
78841;BME280;68379;47.190;27.558;2023-07-29T04:07:38;99414.67;;;18.67;57.75
78841;BME280;68379;47.190;27.558;2023-07-29T04:10:11;99415.34;;;18.75;57.62
78841;BME280;68379;47.190;27.558;2023-07-29T04:12:43;99417.92;;;18.83;56.96
78841;BME280;68379;47.190;27.558;2023-07-29T04:15:15;99415.98;;;18.91;56.86
78841;BME280;68379;47.190;27.558;2023-07-29T04:17:47;99417.04;;;19.03;56.59
78841;BME280;68379;47.190;27.558;2023-07-29T04:20:19;99418.50;;;19.15;56.25
78841;BME280;68379;47.190;27.558;2023-07-29T04:22:51;99418.21;;;19.25;56.21
78841;BME280;68379;47.190;27.558;2023-07-29T04:25:22;99419.30;;;19.36;56.24
78841;BME280;68379;47.190;27.558;2023-07-29T04:27:54;99417.20;;;19.46;56.24
78841;BME280;68379;47.190;27.558;2023-07-29T12:03:50;99364.23;;;32.53;28.00
78841;BME280;68379;47.190;27.558;2023-07-29T12:06:20;99364.83;;;32.30;27.55
78841;BME280;68379;47.190;27.558;2023-07-29T12:08:49;99366.92;;;32.19;28.58
78841;BME280;68379;47.190;27.558;2023-07-29T12:11:19;99367.45;;;32.31;28.50
78841;BME280;68379;47.190;27.558;2023-07-29T12:13:49;99372.13;;;32.33;28.16
78841;BME280;68379;47.190;27.558;2023-07-29T12:16:18;99371.52;;;32.53;27.47
78841;BME280;68379;47.190;27.558;2023-07-29T12:18:49;99358.91;;;32.63;27.68
78841;BME280;68379;47.190;27.558;2023-07-29T12:21:19;99360.45;;;32.52;27.86
78841;BME280;68379;47.190;27.558;2023-07-29T12:23:50;99361.81;;;32.09;28.34
78841;BME280;68379;47.190;27.558;2023-07-29T12:26:19;99361.28;;;32.08;28.47
78841;BME280;68379;47.190;27.558;2023-07-29T12:28:48;99362.63;;;32.35;27.77
78841;BME280;68379;47.190;27.558;2023-07-29T12:31:18;99360.55;;;32.49;27.06
78841;BME280;68379;47.190;27.558;2023-07-29T12:33:48;99365.77;;;32.60;27.04
78841;BME280;68379;47.190;27.558;2023-07-29T12:36:17;99360.42;;;32.79;26.88
78841;BME280;68379;47.190;27.558;2023-07-29T12:38:46;99355.02;;;33.03;26.67
78841;BME280;68379;47.190;27.558;2023-07-29T12:41:15;99353.89;;;33.26;26.79
78841;BME280;68379;47.190;27.558;2023-07-29T12:43:46;99354.77;;;33.31;26.32
78841;BME280;68379;47.190;27.558;2023-07-29T12:46:15;99355.89;;;33.34;26.04
78841;BME280;68379;47.190;27.558;2023-07-29T12:48:44;99349.77;;;33.17;26.31
78841;BME280;68379;47.190;27.558;2023-07-29T12:51:13;99348.77;;;33.07;25.88
78841;BME280;68379;47.190;27.558;2023-07-29T12:53:42;99347.73;;;33.21;26.06
78841;BME280;68379;47.190;27.558;2023-07-29T12:56:12;99352.45;;;33.27;26.75
78841;BME280;68379;47.190;27.558;2023-07-29T12:58:41;99353.33;;;33.24;26.87
78841;BME280;68379;47.190;27.558;2023-07-29T13:01:10;99351.69;;;32.92;27.24
78841;BME280;68379;47.190;27.558;2023-07-29T13:03:45;99352.23;;;32.59;27.20
78841;BME280;68379;47.190;27.558;2023-07-29T13:06:15;99350.84;;;32.48;27.10
78841;BME280;68379;47.190;27.558;2023-07-29T13:08:45;99347.10;;;32.76;27.26
78841;BME280;68379;47.190;27.558;2023-07-29T13:11:14;99352.13;;;33.07;27.00
78841;BME280;68379;47.190;27.558;2023-07-29T13:13:43;99345.25;;;33.33;26.62
78841;BME280;68379;47.190;27.558;2023-07-29T13:16:14;99344.23;;;33.53;25.76
78841;BME280;68379;47.190;27.558;2023-07-29T13:18:44;99338.85;;;33.62;25.60
78841;BME280;68379;47.190;27.558;2023-07-29T13:21:13;99336.82;;;33.68;26.17
78841;BME280;68379;47.190;27.558;2023-07-29T13:23:42;99340.00;;;33.93;26.55
78841;BME280;68379;47.190;27.558;2023-07-29T13:26:11;99342.42;;;33.97;25.90
78841;BME280;68379;47.190;27.558;2023-07-29T13:28:40;99341.42;;;34.01;25.38
78841;BME280;68379;47.190;27.558;2023-07-29T13:31:09;99336.52;;;34.01;24.98
78841;BME280;68379;47.190;27.558;2023-07-29T13:33:39;99333.11;;;34.30;25.67
78841;BME280;68379;47.190;27.558;2023-07-29T13:36:08;99332.13;;;34.87;25.50
78841;BME280;68379;47.190;27.558;2023-07-29T13:38:38;99331.83;;;35.13;24.16
78841;BME280;68379;47.190;27.558;2023-07-29T13:41:08;99332.44;;;35.13;24.31
78841;BME280;68379;47.190;27.558;2023-07-29T13:43:37;99328.63;;;35.24;24.23
78841;BME280;68379;47.190;27.558;2023-07-29T13:46:06;99325.98;;;35.49;24.08
78841;BME280;68379;47.190;27.558;2023-07-29T13:48:35;99322.63;;;35.79;23.22
78841;BME280;68379;47.190;27.558;2023-07-29T13:51:04;99321.63;;;35.85;23.13
78841;BME280;68379;47.190;27.558;2023-07-29T13:53:33;99319.89;;;36.11;23.19
78841;BME280;68379;47.190;27.558;2023-07-29T13:56:04;99321.13;;;36.38;23.26
78841;BME280;68379;47.190;27.558;2023-07-29T13:58:33;99326.87;;;36.63;23.77
78841;BME280;68379;47.190;27.558;2023-07-29T14:01:02;99325.50;;;36.59;22.84
78841;BME280;68379;47.190;27.558;2023-07-29T14:03:32;99328.10;;;36.44;22.79
78841;BME280;68379;47.190;27.558;2023-07-29T14:06:01;99324.77;;;36.41;23.13
78841;BME280;68379;47.190;27.558;2023-07-29T14:08:30;99326.43;;;36.49;22.52
78841;BME280;68379;47.190;27.558;2023-07-29T14:10:59;99324.15;;;36.60;22.01
78841;BME280;68379;47.190;27.558;2023-07-29T14:13:28;99320.76;;;36.82;22.16
78841;BME280;68379;47.190;27.558;2023-07-29T14:15:58;99320.08;;;37.05;21.70
78841;BME280;68379;47.190;27.558;2023-07-29T14:18:28;99317.44;;;37.11;21.99
78841;BME280;68379;47.190;27.558;2023-07-29T14:20:58;99309.77;;;37.36;21.51
78841;BME280;68379;47.190;27.558;2023-07-29T14:23:30;99307.92;;;36.90;21.50
78841;BME280;68379;47.190;27.558;2023-07-29T14:26:00;99307.39;;;36.41;22.40
78841;BME280;68379;47.190;27.558;2023-07-29T14:28:30;99310.27;;;36.29;22.45
78841;BME280;68379;47.190;27.558;2023-07-29T14:30:59;99314.32;;;36.32;22.54
78841;BME280;68379;47.190;27.558;2023-07-29T14:33:29;99313.48;;;36.83;22.81
78841;BME280;68379;47.190;27.558;2023-07-29T14:35:58;99310.17;;;37.31;22.44
78841;BME280;68379;47.190;27.558;2023-07-29T14:38:27;99313.14;;;37.54;21.73
78841;BME280;68379;47.190;27.558;2023-07-29T14:40:56;99310.90;;;37.89;21.82
78841;BME280;68379;47.190;27.558;2023-07-29T14:43:25;99311.26;;;38.25;21.78
78841;BME280;68379;47.190;27.558;2023-07-29T14:45:54;99310.86;;;38.50;20.80
78841;BME280;68379;47.190;27.558;2023-07-29T14:48:24;99309.25;;;38.43;20.34
78841;BME280;68379;47.190;27.558;2023-07-29T14:50:53;99313.73;;;38.63;20.37
78841;BME280;68379;47.190;27.558;2023-07-29T14:53:21;99312.93;;;38.26;19.73
78841;BME280;68379;47.190;27.558;2023-07-29T14:55:51;99313.44;;;37.68;20.56
78841;BME280;68379;47.190;27.558;2023-07-29T14:58:20;99311.12;;;37.14;20.94
78841;BME280;68379;47.190;27.558;2023-07-29T15:00:49;99305.76;;;36.83;21.54
78841;BME280;68379;47.190;27.558;2023-07-29T15:03:18;99308.17;;;36.83;21.71
78841;BME280;68379;47.190;27.558;2023-07-29T15:05:47;99308.70;;;36.95;21.64
78841;BME280;68379;47.190;27.558;2023-07-29T15:08:17;99305.29;;;37.21;21.16
78841;BME280;68379;47.190;27.558;2023-07-29T15:10:47;99302.52;;;37.50;20.67
78841;BME280;68379;47.190;27.558;2023-07-29T15:13:16;99306.05;;;37.79;20.82
78841;BME280;68379;47.190;27.558;2023-07-29T15:15:45;99308.09;;;37.98;20.11
78841;BME280;68379;47.190;27.558;2023-07-29T15:18:14;99304.44;;;38.20;19.71
78841;BME280;68379;47.190;27.558;2023-07-29T15:20:43;99303.63;;;38.57;19.65
78841;BME280;68379;47.190;27.558;2023-07-29T15:23:12;99303.28;;;38.91;19.11
78841;BME280;68379;47.190;27.558;2023-07-29T15:25:41;99305.44;;;39.14;18.76
78841;BME280;68379;47.190;27.558;2023-07-29T15:28:10;99305.61;;;39.36;18.73
78841;BME280;68379;47.190;27.558;2023-07-29T15:30:39;99300.80;;;39.54;18.69
78841;BME280;68379;47.190;27.558;2023-07-29T15:33:08;99304.67;;;39.92;18.47
78841;BME280;68379;47.190;27.558;2023-07-29T15:35:38;99310.39;;;40.23;17.46
78841;BME280;68379;47.190;27.558;2023-07-29T15:38:07;99309.80;;;40.25;17.95
78841;BME280;68379;47.190;27.558;2023-07-29T15:40:38;99305.52;;;40.35;17.96
78841;BME280;68379;47.190;27.558;2023-07-29T15:43:07;99303.20;;;40.37;17.59
78841;BME280;68379;47.190;27.558;2023-07-29T15:45:36;99306.66;;;40.38;17.58
78841;BME280;68379;47.190;27.558;2023-07-29T15:48:05;99304.49;;;40.48;18.11
78841;BME280;68379;47.190;27.558;2023-07-29T15:50:34;99308.77;;;40.06;17.90
78841;BME280;68379;47.190;27.558;2023-07-29T15:53:03;99306.45;;;39.56;17.98
78841;BME280;68379;47.190;27.558;2023-07-29T15:55:32;99313.23;;;39.27;18.25
78841;BME280;68379;47.190;27.558;2023-07-29T15:58:01;99311.63;;;39.13;18.30
78841;BME280;68379;47.190;27.558;2023-07-29T16:00:30;99310.21;;;39.21;18.44
78841;BME280;68379;47.190;27.558;2023-07-29T16:03:00;99308.02;;;39.23;17.97
78841;BME280;68379;47.190;27.558;2023-07-29T16:05:29;99308.29;;;39.05;18.60
78841;BME280;68379;47.190;27.558;2023-07-29T16:07:58;99310.05;;;38.99;18.96
78841;BME280;68379;47.190;27.558;2023-07-29T16:10:28;99314.60;;;38.92;18.99
78841;BME280;68379;47.190;27.558;2023-07-29T16:12:57;99316.80;;;38.68;19.01
78841;BME280;68379;47.190;27.558;2023-07-29T16:15:26;99312.99;;;38.53;19.15
78841;BME280;68379;47.190;27.558;2023-07-29T16:17:55;99316.66;;;38.53;19.29
78841;BME280;68379;47.190;27.558;2023-07-29T16:20:26;99319.11;;;38.39;19.50
78841;BME280;68379;47.190;27.558;2023-07-29T16:22:56;99320.75;;;38.26;19.51
78841;BME280;68379;47.190;27.558;2023-07-29T16:25:25;99324.84;;;38.18;19.29
78841;BME280;68379;47.190;27.558;2023-07-29T16:27:54;99322.14;;;38.20;19.25
78841;BME280;68379;47.190;27.558;2023-07-29T16:30:25;99317.59;;;38.16;19.30
78841;BME280;68379;47.190;27.558;2023-07-29T16:32:54;99319.65;;;37.99;19.64
78841;BME280;68379;47.190;27.558;2023-07-29T16:35:23;99316.48;;;37.89;19.65
78841;BME280;68379;47.190;27.558;2023-07-29T16:37:52;99318.77;;;37.82;19.80
78841;BME280;68379;47.190;27.558;2023-07-29T16:40:23;99314.33;;;37.89;19.75
78841;BME280;68379;47.190;27.558;2023-07-29T16:42:52;99315.80;;;38.04;19.98
78841;BME280;68379;47.190;27.558;2023-07-29T16:45:21;99314.23;;;38.28;19.36
78841;BME280;68379;47.190;27.558;2023-07-29T16:47:51;99316.56;;;38.07;19.55
78841;BME280;68379;47.190;27.558;2023-07-29T16:50:20;99316.05;;;37.56;20.48
78841;BME280;68379;47.190;27.558;2023-07-29T16:52:49;99318.27;;;37.44;20.77
78841;BME280;68379;47.190;27.558;2023-07-29T16:55:22;99319.42;;;37.35;20.67
78841;BME280;68379;47.190;27.558;2023-07-29T16:57:51;99318.77;;;37.26;20.99
78841;BME280;68379;47.190;27.558;2023-07-29T17:00:21;99319.66;;;37.15;20.91
78841;BME280;68379;47.190;27.558;2023-07-29T17:02:50;99318.14;;;36.87;21.05
78841;BME280;68379;47.190;27.558;2023-07-29T17:05:19;99319.95;;;36.45;21.59
78841;BME280;68379;47.190;27.558;2023-07-29T17:07:48;99318.61;;;36.24;22.06
78841;BME280;68379;47.190;27.558;2023-07-29T17:10:18;99323.17;;;36.07;21.76
78841;BME280;68379;47.190;27.558;2023-07-29T17:12:47;99327.54;;;35.79;21.97
78841;BME280;68379;47.190;27.558;2023-07-29T17:15:16;99327.11;;;35.25;22.60
78841;BME280;68379;47.190;27.558;2023-07-29T17:17:47;99326.90;;;34.68;23.47
78841;BME280;68379;47.190;27.558;2023-07-29T17:20:16;99327.77;;;34.13;24.45
78841;BME280;68379;47.190;27.558;2023-07-29T17:22:46;99331.29;;;33.66;25.20
78841;BME280;68379;47.190;27.558;2023-07-29T17:25:15;99333.51;;;33.23;25.87
78841;BME280;68379;47.190;27.558;2023-07-29T17:27:44;99331.36;;;32.84;26.58
78841;BME280;68379;47.190;27.558;2023-07-29T17:30:14;99334.23;;;32.46;27.36
78841;BME280;68379;47.190;27.558;2023-07-29T17:32:43;99336.39;;;32.09;27.78
78841;BME280;68379;47.190;27.558;2023-07-29T17:35:12;99339.83;;;31.70;28.78
78841;BME280;68379;47.190;27.558;2023-07-29T17:37:41;99345.20;;;31.35;29.20
78841;BME280;68379;47.190;27.558;2023-07-29T17:40:11;99347.16;;;31.02;29.53
78841;BME280;68379;47.190;27.558;2023-07-29T17:42:40;99344.39;;;30.69;30.08
78841;BME280;68379;47.190;27.558;2023-07-29T17:45:10;99342.48;;;30.42;30.49
78841;BME280;68379;47.190;27.558;2023-07-29T17:47:39;99342.48;;;30.15;30.69
78841;BME280;68379;47.190;27.558;2023-07-29T17:50:09;99341.09;;;29.88;31.24
78841;BME280;68379;47.190;27.558;2023-07-29T17:52:38;99340.01;;;29.57;31.67
78841;BME280;68379;47.190;27.558;2023-07-29T17:55:08;99339.60;;;29.30;32.16
78841;BME280;68379;47.190;27.558;2023-07-29T17:57:36;99334.71;;;29.07;32.69
78841;BME280;68379;47.190;27.558;2023-07-29T18:00:08;99336.11;;;28.84;33.05
78841;BME280;68379;47.190;27.558;2023-07-29T18:02:37;99334.88;;;28.63;33.46
78841;BME280;68379;47.190;27.558;2023-07-29T18:05:07;99334.07;;;28.48;33.50
78841;BME280;68379;47.190;27.558;2023-07-29T18:07:36;99337.45;;;28.33;33.79
78841;BME280;68379;47.190;27.558;2023-07-29T18:10:07;99343.98;;;28.15;33.89
78841;BME280;68379;47.190;27.558;2023-07-29T18:12:37;99343.05;;;27.93;34.71
78841;BME280;68379;47.190;27.558;2023-07-29T18:15:09;99346.94;;;27.74;34.94
78841;BME280;68379;47.190;27.558;2023-07-29T18:17:38;99349.11;;;27.59;35.27
78841;BME280;68379;47.190;27.558;2023-07-29T18:20:11;99346.85;;;27.47;35.94
78841;BME280;68379;47.190;27.558;2023-07-29T18:22:40;99350.98;;;27.38;36.39
78841;BME280;68379;47.190;27.558;2023-07-29T18:25:09;99351.27;;;27.28;36.95
78841;BME280;68379;47.190;27.558;2023-07-29T18:27:38;99351.82;;;27.19;36.80
78841;BME280;68379;47.190;27.558;2023-07-29T18:30:09;99356.95;;;27.12;36.32
78841;BME280;68379;47.190;27.558;2023-07-29T18:32:41;99361.02;;;27.06;36.48
78841;BME280;68379;47.190;27.558;2023-07-29T18:35:10;99366.66;;;27.01;36.74
78841;BME280;68379;47.190;27.558;2023-07-29T18:37:45;99366.44;;;26.97;36.59
78841;BME280;68379;47.190;27.558;2023-07-29T18:40:14;99367.80;;;26.92;36.57
78841;BME280;68379;47.190;27.558;2023-07-29T18:42:44;99373.73;;;26.87;37.03
78841;BME280;68379;47.190;27.558;2023-07-29T18:45:12;99374.63;;;26.83;37.19
78841;BME280;68379;47.190;27.558;2023-07-29T18:47:42;99374.15;;;26.76;37.56
78841;BME280;68379;47.190;27.558;2023-07-29T18:50:12;99369.33;;;26.68;38.28
78841;BME280;68379;47.190;27.558;2023-07-29T18:52:41;99365.96;;;26.55;38.74
78841;BME280;68379;47.190;27.558;2023-07-29T18:55:10;99364.79;;;26.45;38.81
78841;BME280;68379;47.190;27.558;2023-07-29T18:57:39;99368.51;;;26.34;38.93
78841;BME280;68379;47.190;27.558;2023-07-29T19:00:10;99368.67;;;26.25;38.57
78841;BME280;68379;47.190;27.558;2023-07-29T19:02:42;99369.34;;;26.17;38.95
78841;BME280;68379;47.190;27.558;2023-07-29T19:05:12;99369.14;;;26.11;39.04
78841;BME280;68379;47.190;27.558;2023-07-29T19:07:41;99367.89;;;26.05;38.98
78841;BME280;68379;47.190;27.558;2023-07-29T19:10:13;99366.55;;;25.95;39.11
78841;BME280;68379;47.190;27.558;2023-07-29T19:12:42;99369.33;;;25.88;39.07
78841;BME280;68379;47.190;27.558;2023-07-29T19:15:12;99368.45;;;25.85;39.11
78841;BME280;68379;47.190;27.558;2023-07-29T19:17:42;99364.95;;;25.82;38.93
78841;BME280;68379;47.190;27.558;2023-07-29T19:20:11;99369.34;;;25.80;39.83
78841;BME280;68379;47.190;27.558;2023-07-29T19:22:40;99372.58;;;25.75;40.19
78841;BME280;68379;47.190;27.558;2023-07-29T19:25:09;99375.28;;;25.70;40.84
78841;BME280;68379;47.190;27.558;2023-07-29T19:27:39;99372.50;;;25.66;41.03
78841;BME280;68379;47.190;27.558;2023-07-29T19:30:08;99366.24;;;25.60;41.33
78841;BME280;68379;47.190;27.558;2023-07-29T19:32:38;99366.73;;;25.56;41.60
78841;BME280;68379;47.190;27.558;2023-07-29T19:35:08;99372.11;;;25.53;41.28
78841;BME280;68379;47.190;27.558;2023-07-29T19:37:37;99373.02;;;25.50;41.06
78841;BME280;68379;47.190;27.558;2023-07-29T19:40:08;99377.33;;;25.47;40.68
78841;BME280;68379;47.190;27.558;2023-07-29T19:42:37;99382.64;;;25.43;40.44
78841;BME280;68379;47.190;27.558;2023-07-29T19:45:08;99387.98;;;25.38;41.08
78841;BME280;68379;47.190;27.558;2023-07-29T19:47:37;99390.29;;;25.34;41.14
78841;BME280;68379;47.190;27.558;2023-07-29T19:50:09;99389.88;;;25.27;41.21
78841;BME280;68379;47.190;27.558;2023-07-29T19:52:38;99389.72;;;25.21;41.63
78841;BME280;68379;47.190;27.558;2023-07-29T19:55:08;99390.32;;;25.13;41.70
78841;BME280;68379;47.190;27.558;2023-07-29T19:57:37;99391.07;;;25.06;42.12
78841;BME280;68379;47.190;27.558;2023-07-29T20:00:08;99387.88;;;25.01;42.34
78841;BME280;68379;47.190;27.558;2023-07-29T20:02:38;99385.45;;;24.96;42.78
78841;BME280;68379;47.190;27.558;2023-07-29T20:05:09;99389.20;;;24.93;43.01
78841;BME280;68379;47.190;27.558;2023-07-29T20:07:38;99390.89;;;24.92;43.98
78841;BME280;68379;47.190;27.558;2023-07-29T20:10:09;99392.08;;;24.91;44.73
78841;BME280;68379;47.190;27.558;2023-07-29T20:12:38;99391.48;;;24.87;45.48
78841;BME280;68379;47.190;27.558;2023-07-29T20:15:09;99392.38;;;24.82;45.53
78841;BME280;68379;47.190;27.558;2023-07-29T20:17:38;99391.40;;;24.78;45.10
78841;BME280;68379;47.190;27.558;2023-07-29T20:20:12;99392.83;;;24.71;44.94
78841;BME280;68379;47.190;27.558;2023-07-29T20:22:41;99395.95;;;24.64;45.53
78841;BME280;68379;47.190;27.558;2023-07-29T20:25:10;99393.88;;;24.52;46.57
78841;BME280;68379;47.190;27.558;2023-07-29T20:27:39;99393.23;;;24.39;46.56
78841;BME280;68379;47.190;27.558;2023-07-29T20:30:09;99392.64;;;24.29;46.05
78841;BME280;68379;47.190;27.558;2023-07-29T20:32:38;99395.11;;;24.23;46.77
78841;BME280;68379;47.190;27.558;2023-07-29T20:35:09;99394.52;;;24.17;46.66
78841;BME280;68379;47.190;27.558;2023-07-29T20:37:38;99391.37;;;24.10;46.57
78841;BME280;68379;47.190;27.558;2023-07-29T20:40:10;99390.95;;;24.04;46.98
78841;BME280;68379;47.190;27.558;2023-07-29T20:42:40;99395.36;;;23.96;47.18